createdAt,value
2018-08-04T00:00:52.229Z,1012.79
2018-08-04T00:01:52.201Z,1012.78
2018-08-04T00:02:52.190Z,1012.76
2018-08-04T00:03:52.133Z,1012.81
2018-08-04T00:04:52.097Z,1012.83
2018-08-04T00:05:52.064Z,1012.82
2018-08-04T00:06:52.022Z,1012.84
2018-08-04T00:07:52.006Z,1012.84
2018-08-04T00:08:51.960Z,1012.90
2018-08-04T00:09:51.922Z,1012.87
2018-08-04T00:10:51.881Z,1012.89
2018-08-04T00:11:51.847Z,1012.88
2018-08-04T00:12:51.833Z,1012.87
2018-08-04T00:13:51.777Z,1012.88
2018-08-04T00:14:51.749Z,1012.85
2018-08-04T00:15:51.711Z,1012.89
2018-08-04T00:16:51.679Z,1012.87
2018-08-04T00:17:51.673Z,1012.87
2018-08-04T00:18:51.601Z,1012.84
2018-08-04T00:19:51.570Z,1012.87
2018-08-04T00:20:51.534Z,1012.86
2018-08-04T00:21:51.497Z,1012.88
2018-08-04T00:22:51.472Z,1012.85
2018-08-04T00:23:51.454Z,1012.88
2018-08-04T00:24:51.396Z,1012.86
2018-08-04T00:25:51.358Z,1012.85
2018-08-04T00:26:51.333Z,1012.85
2018-08-04T00:27:51.314Z,1012.83
2018-08-04T00:28:51.257Z,1012.80
2018-08-04T00:29:51.228Z,1012.84
2018-08-04T00:30:51.182Z,1012.86
2018-08-04T00:31:51.146Z,1012.82
2018-08-04T00:32:51.142Z,1012.85
2018-08-04T00:33:51.082Z,1012.83
2018-08-04T00:34:51.057Z,1012.84
2018-08-04T00:35:51.021Z,1012.80
2018-08-04T00:36:50.977Z,1012.78
2018-08-04T00:37:50.965Z,1012.80
2018-08-04T00:38:50.902Z,1012.79
2018-08-04T00:39:50.869Z,1012.81
2018-08-04T00:40:50.837Z,1012.84
2018-08-04T00:41:50.802Z,1012.79
2018-08-04T00:42:50.786Z,1012.84
2018-08-04T00:43:50.731Z,1012.81
2018-08-04T00:44:50.696Z,1012.77
2018-08-04T00:45:50.676Z,1012.80
2018-08-04T00:46:50.631Z,1012.80
2018-08-04T00:47:50.622Z,1012.81
2018-08-04T00:48:50.561Z,1012.85
2018-08-04T00:49:50.526Z,1012.86
2018-08-04T00:50:50.484Z,1012.90
2018-08-04T00:51:50.451Z,1012.92
2018-08-04T00:52:50.442Z,1012.93
2018-08-04T00:53:50.377Z,1012.95
2018-08-04T00:54:50.351Z,1012.95
2018-08-04T00:55:50.315Z,1012.96
2018-08-04T00:56:50.281Z,1012.95
2018-08-04T00:57:50.261Z,1012.93
2018-08-04T00:58:50.214Z,1012.90
2018-08-04T00:59:50.177Z,1012.91
2018-08-04T01:00:50.144Z,1012.88
2018-08-04T01:01:50.130Z,1012.91
2018-08-04T01:02:50.066Z,1012.91
2018-08-04T01:03:50.034Z,1012.95
2018-08-04T01:04:50.002Z,1012.95
2018-08-04T01:05:49.960Z,1012.96
2018-08-04T01:06:49.960Z,1012.98
2018-08-04T01:07:49.903Z,1012.96
2018-08-04T01:08:49.865Z,1012.98
2018-08-04T01:09:49.830Z,1012.99
2018-08-04T01:10:49.796Z,1012.96
2018-08-04T01:11:49.776Z,1012.99
2018-08-04T01:12:49.725Z,1012.95
2018-08-04T01:13:49.688Z,1013.00
2018-08-04T01:14:49.648Z,1012.95
2018-08-04T01:15:49.619Z,1012.92
2018-08-04T01:16:49.602Z,1012.94
2018-08-04T01:17:49.547Z,1013.00
2018-08-04T01:18:49.519Z,1013.01
2018-08-04T01:19:49.482Z,1012.94
2018-08-04T01:20:49.448Z,1012.93
2018-08-04T01:21:49.436Z,1012.91
2018-08-04T01:22:49.372Z,1012.95
2018-08-04T01:23:49.338Z,1012.91
2018-08-04T01:24:49.307Z,1012.96
2018-08-04T01:25:49.269Z,1012.91
2018-08-04T01:26:49.269Z,1012.88
2018-08-04T01:27:49.207Z,1012.87
2018-08-04T01:28:49.168Z,1012.86
2018-08-04T01:29:49.133Z,1012.82
2018-08-04T01:30:49.105Z,1012.87
2018-08-04T01:31:49.069Z,1012.90
2018-08-04T01:32:49.058Z,1012.87
2018-08-04T01:33:49.000Z,1012.87
2018-08-04T01:34:48.967Z,1012.89
2018-08-04T01:35:48.920Z,1012.89
2018-08-04T01:36:48.887Z,1012.88
2018-08-04T01:37:48.880Z,1012.93
2018-08-04T01:38:48.826Z,1012.91
2018-08-04T01:39:48.797Z,1012.87
2018-08-04T01:40:48.757Z,1012.90
2018-08-04T01:41:48.721Z,1012.86
2018-08-04T01:42:48.708Z,1012.87
2018-08-04T01:43:48.648Z,1012.90
2018-08-04T01:44:48.621Z,1012.90
2018-08-04T01:45:48.585Z,1012.90
2018-08-04T01:46:48.542Z,1012.92
2018-08-04T01:47:48.507Z,1012.89
2018-08-04T01:48:48.497Z,1012.90
2018-08-04T01:49:48.440Z,1012.91
2018-08-04T01:50:48.413Z,1012.91
2018-08-04T01:51:48.377Z,1012.88
2018-08-04T01:52:48.367Z,1012.88
2018-08-04T01:53:48.332Z,1012.88
2018-08-04T01:54:48.275Z,1012.89
2018-08-04T01:55:48.231Z,1012.90
2018-08-04T01:56:48.197Z,1012.89
2018-08-04T01:57:48.162Z,1012.91
2018-08-04T01:58:48.159Z,1012.89
2018-08-04T01:59:48.099Z,1012.95
2018-08-04T02:00:48.058Z,1012.92
2018-08-04T02:01:48.027Z,1012.95
2018-08-04T02:02:48.023Z,1012.95
2018-08-04T02:03:47.969Z,1012.98
2018-08-04T02:04:47.922Z,1013.00
2018-08-04T02:05:47.890Z,1012.96
2018-08-04T02:06:47.849Z,1012.99
2018-08-04T02:07:47.843Z,1012.98
2018-08-04T02:08:47.778Z,1012.94
2018-08-04T02:09:47.744Z,1012.95
2018-08-04T02:10:47.717Z,1012.93
2018-08-04T02:11:47.678Z,1012.88
2018-08-04T02:12:47.651Z,1012.86
2018-08-04T02:13:47.639Z,1012.84
2018-08-04T02:14:47.572Z,1012.80
2018-08-04T02:15:47.535Z,1012.81
2018-08-04T02:16:47.506Z,1012.80
2018-08-04T02:17:47.472Z,1012.80
2018-08-04T02:18:47.460Z,1012.77
2018-08-04T02:19:47.401Z,1012.76
2018-08-04T02:20:47.365Z,1012.80
2018-08-04T02:21:47.325Z,1012.79
2018-08-04T02:22:47.298Z,1012.77
2018-08-04T02:23:47.263Z,1012.82
2018-08-04T02:24:47.251Z,1012.81
2018-08-04T02:25:47.195Z,1012.84
2018-08-04T02:26:47.153Z,1012.84
2018-08-04T02:27:47.119Z,1012.80
2018-08-04T02:28:47.087Z,1012.79
2018-08-04T02:29:47.079Z,1012.79
2018-08-04T02:30:47.020Z,1012.77
2018-08-04T02:31:46.983Z,1012.77
2018-08-04T02:32:46.940Z,1012.75
2018-08-04T02:33:46.909Z,1012.75
2018-08-04T02:34:46.912Z,1012.74
2018-08-04T02:35:46.846Z,1012.68
2018-08-04T02:36:46.809Z,1012.69
2018-08-04T02:37:46.796Z,1012.63
2018-08-04T02:38:46.735Z,1012.64
2018-08-04T02:39:46.724Z,1012.60
2018-08-04T02:40:46.666Z,1012.59
2018-08-04T02:41:46.629Z,1012.59
2018-08-04T02:42:46.601Z,1012.56
2018-08-04T02:43:46.566Z,1012.60
2018-08-04T02:44:46.558Z,1012.62
2018-08-04T02:45:46.494Z,1012.62
2018-08-04T02:46:46.456Z,1012.66
2018-08-04T02:47:46.425Z,1012.64
2018-08-04T02:48:46.393Z,1012.67
2018-08-04T02:49:46.378Z,1012.67
2018-08-04T02:50:46.314Z,1012.68
2018-08-04T02:51:46.278Z,1012.69
2018-08-04T02:52:46.251Z,1012.66
2018-08-04T02:53:46.208Z,1012.68
2018-08-04T02:54:46.206Z,1012.66
2018-08-04T02:55:46.145Z,1012.64
2018-08-04T02:56:46.112Z,1012.64
2018-08-04T02:57:46.074Z,1012.62
2018-08-04T02:58:46.032Z,1012.65
2018-08-04T02:59:46.035Z,1012.61
2018-08-04T03:00:45.964Z,1012.61
2018-08-04T03:01:45.941Z,1012.60
2018-08-04T03:02:45.896Z,1012.55
2018-08-04T03:03:45.864Z,1012.57
2018-08-04T03:04:45.861Z,1012.52
2018-08-04T03:05:45.797Z,1012.48
2018-08-04T03:06:45.765Z,1012.50
2018-08-04T03:07:45.727Z,1012.51
2018-08-04T03:08:45.684Z,1012.51
2018-08-04T03:09:45.673Z,1012.48
2018-08-04T03:10:45.612Z,1012.52
2018-08-04T03:11:45.577Z,1012.49
2018-08-04T03:12:45.546Z,1012.51
2018-08-04T03:13:45.515Z,1012.53
2018-08-04T03:14:45.505Z,1012.51
2018-08-04T03:15:45.447Z,1012.54
2018-08-04T03:16:45.403Z,1012.50
2018-08-04T03:17:45.365Z,1012.48
2018-08-04T03:18:45.357Z,1012.44
2018-08-04T03:19:45.298Z,1012.49
2018-08-04T03:20:45.259Z,1012.45
2018-08-04T03:21:45.232Z,1012.46
2018-08-04T03:22:45.188Z,1012.45
2018-08-04T03:23:45.176Z,1012.52
2018-08-04T03:24:45.127Z,1012.45
2018-08-04T03:25:45.092Z,1012.42
2018-08-04T03:26:45.055Z,1012.42
2018-08-04T03:27:45.043Z,1012.36
2018-08-04T03:28:45.047Z,1012.38
2018-08-04T03:29:44.956Z,1012.37
2018-08-04T03:30:44.924Z,1012.36
2018-08-04T03:31:44.983Z,1012.36
2018-08-04T03:32:44.965Z,1012.38
2018-08-04T03:33:44.804Z,1012.39
2018-08-04T03:34:44.786Z,1012.39
2018-08-04T03:35:44.728Z,1012.46
2018-08-04T03:36:44.703Z,1012.42
2018-08-04T03:37:44.667Z,1012.45
2018-08-04T03:38:44.634Z,1012.48
2018-08-04T03:39:44.619Z,1012.48
2018-08-04T03:40:44.553Z,1012.48
2018-08-04T03:41:44.520Z,1012.49
2018-08-04T03:42:44.483Z,1012.53
2018-08-04T03:43:44.445Z,1012.55
2018-08-04T03:44:44.439Z,1012.59
2018-08-04T03:45:44.382Z,1012.61
2018-08-04T03:46:44.351Z,1012.63
2018-08-04T03:47:44.313Z,1012.64
2018-08-04T03:48:44.270Z,1012.67
2018-08-04T03:49:44.268Z,1012.68
2018-08-04T03:50:44.207Z,1012.67
2018-08-04T03:51:44.177Z,1012.69
2018-08-04T03:52:44.127Z,1012.62
2018-08-04T03:53:44.093Z,1012.59
2018-08-04T03:54:44.064Z,1012.63
2018-08-04T03:55:44.065Z,1012.66
2018-08-04T03:56:43.992Z,1012.61
2018-08-04T03:57:43.960Z,1012.66
2018-08-04T03:58:43.922Z,1012.68
2018-08-04T03:59:43.987Z,1012.68
2018-08-04T04:00:43.848Z,1012.70
2018-08-04T04:01:43.814Z,1012.70
2018-08-04T04:02:43.777Z,1012.71
2018-08-04T04:03:43.741Z,1012.72
2018-08-04T04:04:43.734Z,1012.73
2018-08-04T04:05:43.690Z,1012.70
2018-08-04T04:06:43.667Z,1012.71
2018-08-04T04:07:43.599Z,1012.67
2018-08-04T04:08:43.568Z,1012.66
2018-08-04T04:09:43.575Z,1012.68
2018-08-04T04:10:43.500Z,1012.67
2018-08-04T04:11:43.459Z,1012.68
2018-08-04T04:12:43.420Z,1012.72
2018-08-04T04:13:43.386Z,1012.71
2018-08-04T04:14:43.347Z,1012.74
2018-08-04T04:15:43.345Z,1012.76
2018-08-04T04:16:43.281Z,1012.77
2018-08-04T04:17:43.248Z,1012.78
2018-08-04T04:18:43.213Z,1012.73
2018-08-04T04:19:43.169Z,1012.75
2018-08-04T04:20:43.158Z,1012.76
2018-08-04T04:21:43.108Z,1012.74
2018-08-04T04:22:43.076Z,1012.74
2018-08-04T04:23:43.037Z,1012.73
2018-08-04T04:24:42.997Z,1012.75
2018-08-04T04:25:42.988Z,1012.76
2018-08-04T04:26:42.926Z,1012.75
2018-08-04T04:27:42.894Z,1012.74
2018-08-04T04:28:42.860Z,1012.71
2018-08-04T04:29:42.868Z,1012.69
2018-08-04T04:30:42.787Z,1012.66
2018-08-04T04:31:42.771Z,1012.68
2018-08-04T04:32:42.710Z,1012.68
2018-08-04T04:33:42.677Z,1012.65
2018-08-04T04:34:42.642Z,1012.68
2018-08-04T04:35:42.619Z,1012.72
2018-08-04T04:36:42.600Z,1012.76
2018-08-04T04:37:42.532Z,1012.78
2018-08-04T04:38:42.509Z,1012.82
2018-08-04T04:39:42.477Z,1012.80
2018-08-04T04:40:42.474Z,1012.81
2018-08-04T04:41:42.426Z,1012.79
2018-08-04T04:42:42.365Z,1012.87
2018-08-04T04:43:42.324Z,1012.87
2018-08-04T04:44:42.290Z,1012.84
2018-08-04T04:45:42.261Z,1012.83
2018-08-04T04:46:42.238Z,1012.85
2018-08-04T04:47:42.208Z,1012.87
2018-08-04T04:48:42.149Z,1012.88
2018-08-04T04:49:42.114Z,1012.89
2018-08-04T04:50:42.076Z,1012.93
2018-08-04T04:51:42.049Z,1012.92
2018-08-04T04:52:42.042Z,1012.91
2018-08-04T04:53:41.972Z,1012.90
2018-08-04T04:54:41.935Z,1012.91
2018-08-04T04:55:41.907Z,1012.90
2018-08-04T04:56:41.876Z,1012.87
2018-08-04T04:57:41.861Z,1012.88
2018-08-04T04:58:41.802Z,1012.85
2018-08-04T04:59:41.758Z,1012.83
2018-08-04T05:00:41.725Z,1012.82
2018-08-04T05:01:41.697Z,1012.83
2018-08-04T05:02:41.684Z,1012.80
2018-08-04T05:03:41.633Z,1012.86
2018-08-04T05:04:41.591Z,1012.86
2018-08-04T05:05:41.557Z,1012.90
2018-08-04T05:06:41.527Z,1012.93
2018-08-04T05:07:41.480Z,1012.98
2018-08-04T05:08:41.528Z,1012.99
2018-08-04T05:09:41.415Z,1013.01
2018-08-04T05:10:41.383Z,1013.01
2018-08-04T05:11:41.344Z,1013.01
2018-08-04T05:12:41.307Z,1012.97
2018-08-04T05:13:41.296Z,1012.98
2018-08-04T05:14:41.239Z,1013.00
2018-08-04T05:15:41.208Z,1012.99
2018-08-04T05:16:41.175Z,1013.00
2018-08-04T05:17:41.144Z,1013.05
2018-08-04T05:18:41.149Z,1013.05
2018-08-04T05:19:41.067Z,1013.02
2018-08-04T05:20:41.026Z,1013.04
2018-08-04T05:21:41.019Z,1013.03
2018-08-04T05:22:40.954Z,1013.09
2018-08-04T05:23:40.930Z,1013.09
2018-08-04T05:24:40.919Z,1013.14
2018-08-04T05:25:40.851Z,1013.17
2018-08-04T05:26:40.816Z,1013.16
2018-08-04T05:27:40.787Z,1013.16
2018-08-04T05:28:40.753Z,1013.23
2018-08-04T05:29:40.739Z,1013.26
2018-08-04T05:30:40.706Z,1013.34
2018-08-04T05:31:40.641Z,1013.41
2018-08-04T05:32:40.607Z,1013.46
2018-08-04T05:33:40.599Z,1013.46
2018-08-04T05:34:40.566Z,1013.40
2018-08-04T05:35:40.506Z,1013.40
2018-08-04T05:36:40.478Z,1013.38
2018-08-04T05:37:40.441Z,1013.33
2018-08-04T05:38:40.418Z,1013.34
2018-08-04T05:39:40.369Z,1013.33
2018-08-04T05:40:40.349Z,1013.34
2018-08-04T05:41:40.302Z,1013.33
2018-08-04T05:42:40.269Z,1013.33
2018-08-04T05:43:40.310Z,1013.33
2018-08-04T05:44:40.196Z,1013.31
2018-08-04T05:45:40.180Z,1013.34
2018-08-04T05:46:40.127Z,1013.30
2018-08-04T05:47:40.113Z,1013.28
2018-08-04T05:48:40.066Z,1013.28
2018-08-04T05:49:40.029Z,1013.25
2018-08-04T05:50:40.021Z,1013.26
2018-08-04T05:51:39.954Z,1013.28
2018-08-04T05:52:39.926Z,1013.28
2018-08-04T05:53:39.889Z,1013.30
2018-08-04T05:54:39.858Z,1013.29
2018-08-04T05:55:39.856Z,1013.34
2018-08-04T05:56:39.792Z,1013.32
2018-08-04T05:57:39.752Z,1013.34
2018-08-04T05:58:39.718Z,1013.36
2018-08-04T05:59:39.691Z,1013.34
2018-08-04T06:00:39.697Z,1013.35
2018-08-04T06:01:39.646Z,1013.33
2018-08-04T06:02:39.592Z,1013.33
2018-08-04T06:03:39.547Z,1013.37
2018-08-04T06:04:39.515Z,1013.39
2018-08-04T06:05:39.484Z,1013.40
2018-08-04T06:06:39.500Z,1013.39
2018-08-04T06:07:39.415Z,1013.42
2018-08-04T06:08:39.383Z,1013.40
2018-08-04T06:09:39.360Z,1013.38
2018-08-04T06:10:39.399Z,1013.37
2018-08-04T06:11:39.382Z,1013.39
2018-08-04T06:12:39.244Z,1013.43
2018-08-04T06:13:39.214Z,1013.41
2018-08-04T06:14:39.180Z,1013.43
2018-08-04T06:15:39.142Z,1013.45
2018-08-04T06:16:39.107Z,1013.45
2018-08-04T06:17:39.094Z,1013.45
2018-08-04T06:18:39.038Z,1013.47
2018-08-04T06:19:39.011Z,1013.49
2018-08-04T06:20:38.976Z,1013.55
2018-08-04T06:21:38.940Z,1013.57
2018-08-04T06:22:39.020Z,1013.61
2018-08-04T06:23:38.867Z,1013.60
2018-08-04T06:24:38.876Z,1013.62
2018-08-04T06:25:38.845Z,1013.60
2018-08-04T06:26:38.788Z,1013.66
2018-08-04T06:27:38.830Z,1013.63
2018-08-04T06:28:38.725Z,1013.65
2018-08-04T06:29:38.672Z,1013.70
2018-08-04T06:30:38.743Z,1013.72
2018-08-04T06:31:38.622Z,1013.78
2018-08-04T06:32:38.580Z,1013.83
2018-08-04T06:33:38.594Z,1013.90
2018-08-04T06:34:38.505Z,1013.80
2018-08-04T06:35:38.461Z,1013.79
2018-08-04T06:36:38.439Z,1013.80
2018-08-04T06:37:38.422Z,1013.78
2018-08-04T06:38:38.390Z,1013.93
2018-08-04T06:39:38.401Z,1014.01
2018-08-04T06:40:38.307Z,1014.02
2018-08-04T06:41:38.290Z,1013.91
2018-08-04T06:42:38.259Z,1013.93
2018-08-04T06:43:38.195Z,1013.91
2018-08-04T06:44:38.171Z,1013.87
2018-08-04T06:45:38.142Z,1013.89
2018-08-04T06:46:38.108Z,1013.89
2018-08-04T06:47:38.110Z,1013.85
2018-08-04T06:48:38.033Z,1013.86
2018-08-04T06:49:38.004Z,1013.86
2018-08-04T06:50:37.968Z,1013.84
2018-08-04T06:51:37.940Z,1013.84
2018-08-04T06:52:37.928Z,1013.84
2018-08-04T06:53:37.875Z,1013.83
2018-08-04T06:54:37.845Z,1013.89
2018-08-04T06:55:37.802Z,1013.81
2018-08-04T06:56:37.767Z,1013.79
2018-08-04T06:57:37.756Z,1013.82
2018-08-04T06:58:37.705Z,1013.84
2018-08-04T06:59:37.674Z,1013.83
2018-08-04T07:00:37.641Z,1013.82
2018-08-04T07:01:37.601Z,1013.91
2018-08-04T07:02:37.591Z,1014.05
2018-08-04T07:03:37.540Z,1014.10
2018-08-04T07:04:37.512Z,1014.24
2018-08-04T07:05:37.480Z,1014.12
2018-08-04T07:06:37.441Z,1014.41
2018-08-04T07:07:37.431Z,1014.29
2018-08-04T07:08:37.370Z,1014.55
2018-08-04T07:09:37.338Z,1014.79
2018-08-04T07:10:37.308Z,1014.80
2018-08-04T07:11:37.278Z,1014.65
2018-08-04T07:12:37.254Z,1014.40
2018-08-04T07:13:37.246Z,1014.25
2018-08-04T07:14:37.184Z,1014.21
2018-08-04T07:15:37.144Z,1014.30
2018-08-04T07:16:47.494Z,1014.22
2018-08-04T07:17:37.082Z,1014.48
2018-08-04T07:18:37.068Z,1014.36
2018-08-04T07:19:37.018Z,1014.59
2018-08-04T07:20:36.983Z,1014.56
2018-08-04T07:21:36.958Z,1014.65
2018-08-04T07:22:36.931Z,1014.67
2018-08-04T07:23:36.928Z,1014.67
2018-08-04T07:24:36.865Z,1014.59
2018-08-04T07:25:36.835Z,1014.77
2018-08-04T07:26:36.796Z,1014.77
2018-08-04T07:27:36.765Z,1014.94
2018-08-04T07:28:36.733Z,1014.97
2018-08-04T07:29:36.732Z,1014.66
2018-08-04T07:30:36.677Z,1014.50
2018-08-04T07:31:36.639Z,1014.64
2018-08-04T07:32:36.617Z,1014.72
2018-08-04T07:33:36.590Z,1014.74
2018-08-04T07:34:36.585Z,1014.74
2018-08-04T07:35:36.527Z,1014.70
2018-08-04T07:36:36.503Z,1014.62
2018-08-04T07:37:36.458Z,1014.48
2018-08-04T07:38:36.430Z,1014.46
2018-08-04T07:39:36.417Z,1014.29
2018-08-04T07:40:36.366Z,1014.10
2018-08-04T07:41:36.348Z,1014.22
2018-08-04T07:42:36.315Z,1014.31
2018-08-04T07:43:36.283Z,1014.32
2018-08-04T07:44:36.283Z,1014.32
2018-08-04T07:45:36.220Z,1014.46
2018-08-04T07:46:36.185Z,1014.63
2018-08-04T07:47:36.193Z,1014.63
2018-08-04T07:48:36.142Z,1014.75
2018-08-04T07:49:36.094Z,1014.67
2018-08-04T07:50:36.091Z,1014.68
2018-08-04T07:51:36.034Z,1014.78
2018-08-04T07:52:36.007Z,1014.76
2018-08-04T07:53:35.992Z,1014.77
2018-08-04T07:54:46.048Z,1014.74
2018-08-04T07:55:35.945Z,1014.80
2018-08-04T07:56:35.887Z,1014.83
2018-08-04T07:57:35.859Z,1014.82
2018-08-04T07:58:35.830Z,1014.82
2018-08-04T07:59:35.807Z,1014.78
2018-08-04T08:00:35.804Z,1014.82
2018-08-04T08:01:35.746Z,1014.88
2018-08-04T08:02:35.715Z,1014.73
2018-08-04T08:03:35.695Z,1014.82
2018-08-04T08:04:35.662Z,1014.88
2018-08-04T08:05:35.641Z,1014.81
2018-08-04T08:06:35.628Z,1014.82
2018-08-04T08:07:35.572Z,1014.88
2018-08-04T08:08:35.543Z,1014.87
2018-08-04T08:09:35.516Z,1014.81
2018-08-04T08:10:35.569Z,1014.80
2018-08-04T08:11:35.489Z,1014.77
2018-08-04T08:12:35.436Z,1014.82
2018-08-04T08:13:35.410Z,1014.86
2018-08-04T08:14:35.384Z,1014.84
2018-08-04T08:15:35.347Z,1014.66
2018-08-04T08:16:35.340Z,1014.90
2018-08-04T08:17:35.299Z,1014.86
2018-08-04T08:18:35.271Z,1014.89
2018-08-04T08:19:35.238Z,1014.87
2018-08-04T08:20:35.205Z,1014.86
2018-08-04T08:21:35.210Z,1014.82
2018-08-04T08:22:35.152Z,1014.83
2018-08-04T08:23:35.136Z,1014.87
2018-08-04T08:24:35.111Z,1014.86
2018-08-04T08:25:35.084Z,1014.89
2018-08-04T08:26:35.048Z,1014.91
2018-08-04T08:27:35.044Z,1014.95
2018-08-04T08:28:35.017Z,1014.94
2018-08-04T08:29:34.968Z,1014.99
2018-08-04T08:30:34.952Z,1014.98
2018-08-04T08:31:34.975Z,1014.96
2018-08-04T08:32:34.918Z,1014.98
2018-08-04T08:33:34.865Z,1014.94
2018-08-04T08:34:34.847Z,1014.96
2018-08-04T08:35:34.821Z,1015.01
2018-08-04T08:36:34.788Z,1014.97
2018-08-04T08:37:34.796Z,1014.97
2018-08-04T08:38:34.735Z,1014.98
2018-08-04T08:39:34.709Z,1014.99
2018-08-04T08:40:34.704Z,1015.00
2018-08-04T08:41:34.661Z,1015.00
2018-08-04T08:42:34.637Z,1014.98
2018-08-04T08:43:34.638Z,1014.94
2018-08-04T08:44:34.584Z,1014.99
2018-08-04T08:45:34.564Z,1015.01
2018-08-04T08:46:34.531Z,1014.96
2018-08-04T08:47:34.505Z,1014.97
2018-08-04T08:48:34.505Z,1014.97
2018-08-04T08:49:34.461Z,1014.92
2018-08-04T08:50:34.436Z,1014.94
2018-08-04T08:51:34.404Z,1014.94
2018-08-04T08:52:34.383Z,1014.95
2018-08-04T08:53:34.506Z,1014.97
2018-08-04T08:54:34.338Z,1014.93
2018-08-04T08:55:34.320Z,1014.96
2018-08-04T08:56:34.288Z,1014.97
2018-08-04T08:57:34.262Z,1014.96
2018-08-04T08:58:34.234Z,1014.98
2018-08-04T08:59:34.249Z,1015.00
2018-08-04T09:00:34.186Z,1014.93
2018-08-04T09:01:34.164Z,1014.97
2018-08-04T09:02:34.148Z,1014.90
2018-08-04T09:03:34.122Z,1014.96
2018-08-04T09:04:34.109Z,1014.95
2018-08-04T09:05:34.067Z,1014.89
2018-08-04T09:06:34.048Z,1014.90
2018-08-04T09:07:34.025Z,1014.92
2018-08-04T09:08:34.038Z,1014.91
2018-08-04T09:09:34.001Z,1014.93
2018-08-04T09:10:33.947Z,1014.88
2018-08-04T09:11:33.922Z,1014.87
2018-08-04T09:12:33.904Z,1014.92
2018-08-04T09:13:33.876Z,1014.94
2018-08-04T09:14:33.884Z,1015.01
2018-08-04T09:15:33.897Z,1014.96
2018-08-04T09:16:33.815Z,1014.95
2018-08-04T09:17:33.795Z,1015.00
2018-08-04T09:18:33.757Z,1014.99
2018-08-04T09:19:33.734Z,1015.05
2018-08-04T09:20:33.749Z,1015.05
2018-08-04T09:21:33.708Z,1015.10
2018-08-04T09:22:33.668Z,1015.12
2018-08-04T09:23:33.644Z,1015.10
2018-08-04T09:24:33.646Z,1015.08
2018-08-04T09:25:33.596Z,1015.07
2018-08-04T09:26:33.579Z,1015.05
2018-08-04T09:27:33.552Z,1015.10
2018-08-04T09:28:33.533Z,1015.16
2018-08-04T09:29:33.615Z,1015.13
2018-08-04T09:30:33.504Z,1015.11
2018-08-04T09:31:33.455Z,1015.06
2018-08-04T09:32:33.431Z,1015.05
2018-08-04T09:33:33.410Z,1015.08
2018-08-04T09:34:33.395Z,1015.07
2018-08-04T09:35:33.397Z,1015.02
2018-08-04T09:36:33.341Z,1015.07
2018-08-04T09:37:33.319Z,1015.05
2018-08-04T09:38:33.300Z,1015.05
2018-08-04T09:39:33.279Z,1015.05
2018-08-04T09:40:33.280Z,1015.10
2018-08-04T09:41:33.227Z,1015.07
2018-08-04T09:42:33.201Z,1015.08
2018-08-04T09:43:33.180Z,1015.07
2018-08-04T09:44:33.160Z,1015.09
2018-08-04T09:45:33.155Z,1015.11
2018-08-04T09:46:33.116Z,1015.11
2018-08-04T09:47:33.095Z,1015.08
2018-08-04T09:48:33.070Z,1015.00
2018-08-04T09:49:33.052Z,1015.00
2018-08-04T09:50:33.043Z,1015.10
2018-08-04T09:51:32.999Z,1015.08
2018-08-04T09:52:33.045Z,1015.04
2018-08-04T09:53:32.959Z,1015.01
2018-08-04T09:54:32.929Z,1015.11
2018-08-04T09:55:32.936Z,1015.02
2018-08-04T09:56:32.886Z,1015.03
2018-08-04T09:57:32.875Z,1014.97
2018-08-04T09:58:32.852Z,1014.99
2018-08-04T09:59:32.862Z,1015.03
2018-08-04T10:00:32.825Z,1015.07
2018-08-04T10:01:32.784Z,1015.12
2018-08-04T10:02:32.750Z,1015.04
2018-08-04T10:03:32.728Z,1014.98
2018-08-04T10:04:32.710Z,1015.04
2018-08-04T10:05:32.704Z,1015.08
2018-08-04T10:06:32.675Z,1015.14
2018-08-04T10:07:32.648Z,1015.14
2018-08-04T10:08:32.619Z,1015.09
2018-08-04T10:09:32.596Z,1015.07
2018-08-04T10:10:32.605Z,1015.11
2018-08-04T10:11:32.568Z,1015.25
2018-08-04T10:12:32.548Z,1015.14
2018-08-04T10:13:32.523Z,1015.12
2018-08-04T10:14:32.497Z,1015.07
2018-08-04T10:15:32.497Z,1015.16
2018-08-04T10:16:32.450Z,1015.16
2018-08-04T10:17:32.431Z,1015.12
2018-08-04T10:18:32.417Z,1015.03
2018-08-04T10:19:32.397Z,1015.12
2018-08-04T10:20:32.412Z,1015.26
2018-08-04T10:21:32.352Z,1015.17
2018-08-04T10:22:32.324Z,1015.10
2018-08-04T10:23:32.304Z,1015.03
2018-08-04T10:24:32.286Z,1015.01
2018-08-04T10:25:32.288Z,1015.09
2018-08-04T10:26:32.241Z,1015.07
2018-08-04T10:27:32.213Z,1014.99
2018-08-04T10:28:32.201Z,1014.95
2018-08-04T10:29:32.174Z,1014.99
2018-08-04T10:30:32.183Z,1014.96
2018-08-04T10:31:32.135Z,1015.01
2018-08-04T10:32:32.173Z,1015.05
2018-08-04T10:33:32.095Z,1014.93
2018-08-04T10:34:32.071Z,1014.93
2018-08-04T10:35:32.064Z,1014.87
2018-08-04T10:36:32.017Z,1014.88
2018-08-04T10:37:32.000Z,1014.92
2018-08-04T10:38:32.033Z,1014.92
2018-08-04T10:39:31.958Z,1014.87
2018-08-04T10:40:31.949Z,1014.79
2018-08-04T10:41:31.917Z,1014.84
2018-08-04T10:42:31.895Z,1014.86
2018-08-04T10:43:31.876Z,1014.84
2018-08-04T10:44:31.852Z,1014.85
2018-08-04T10:45:31.843Z,1014.91
2018-08-04T10:46:31.803Z,1014.89
2018-08-04T10:47:31.778Z,1014.86
2018-08-04T10:48:31.759Z,1014.87
2018-08-04T10:49:31.808Z,1014.87
2018-08-04T10:50:31.741Z,1014.90
2018-08-04T10:51:31.699Z,1014.93
2018-08-04T10:52:31.672Z,1014.92
2018-08-04T10:53:31.646Z,1014.93
2018-08-04T10:54:31.675Z,1014.85
2018-08-04T10:55:31.636Z,1014.92
2018-08-04T10:56:31.585Z,1014.94
2018-08-04T10:57:31.558Z,1014.96
2018-08-04T10:58:31.549Z,1014.95
2018-08-04T10:59:31.509Z,1014.91
2018-08-04T11:00:31.557Z,1014.95
2018-08-04T11:01:31.481Z,1014.93
2018-08-04T11:02:31.454Z,1014.97
2018-08-04T11:03:31.431Z,1014.91
2018-08-04T11:04:31.400Z,1014.93
2018-08-04T11:05:31.404Z,1014.91
2018-08-04T11:06:31.364Z,1014.90
2018-08-04T11:07:31.344Z,1014.86
2018-08-04T11:08:31.321Z,1014.82
2018-08-04T11:09:31.301Z,1014.83
2018-08-04T11:10:31.298Z,1014.85
2018-08-04T11:11:31.248Z,1014.84
2018-08-04T11:12:31.265Z,1014.80
2018-08-04T11:13:31.219Z,1014.80
2018-08-04T11:14:31.196Z,1014.81
2018-08-04T11:15:31.197Z,1014.84
2018-08-04T11:16:31.143Z,1014.86
2018-08-04T11:17:31.129Z,1014.83
2018-08-04T11:18:31.104Z,1014.82
2018-08-04T11:19:31.088Z,1014.81
2018-08-04T11:20:31.090Z,1014.78
2018-08-04T11:21:31.046Z,1014.78
2018-08-04T11:22:31.032Z,1014.78
2018-08-04T11:23:31.008Z,1014.73
2018-08-04T11:24:30.983Z,1014.76
2018-08-04T11:25:30.990Z,1014.73
2018-08-04T11:26:30.950Z,1014.73
2018-08-04T11:27:30.947Z,1014.73
2018-08-04T11:28:30.899Z,1014.69
2018-08-04T11:29:30.877Z,1014.70
2018-08-04T11:30:30.861Z,1014.69
2018-08-04T11:31:30.886Z,1014.65
2018-08-04T11:32:30.844Z,1014.57
2018-08-04T11:33:30.804Z,1014.60
2018-08-04T11:34:30.790Z,1014.63
2018-08-04T11:35:30.760Z,1014.56
2018-08-04T11:36:30.760Z,1014.59
2018-08-04T11:37:30.714Z,1014.59
2018-08-04T11:38:30.709Z,1014.58
2018-08-04T11:39:30.676Z,1014.60
2018-08-04T11:40:30.660Z,1014.64
2018-08-04T11:41:30.642Z,1014.68
2018-08-04T11:42:30.635Z,1014.63
2018-08-04T11:43:30.598Z,1014.61
2018-08-04T11:44:30.582Z,1014.65
2018-08-04T11:45:30.616Z,1014.58
2018-08-04T11:46:30.543Z,1014.61
2018-08-04T11:47:30.542Z,1014.51
2018-08-04T11:48:30.493Z,1014.60
2018-08-04T11:49:30.475Z,1014.60
2018-08-04T11:50:30.452Z,1014.61
2018-08-04T11:51:30.483Z,1014.49
2018-08-04T11:52:30.442Z,1014.56
2018-08-04T11:53:30.411Z,1014.50
2018-08-04T11:54:30.382Z,1014.55
2018-08-04T11:55:30.367Z,1014.53
2018-08-04T11:56:30.334Z,1014.47
2018-08-04T11:57:30.340Z,1014.47
2018-08-04T11:58:30.343Z,1014.49
2018-08-04T11:59:30.279Z,1014.47
2018-08-04T12:00:30.284Z,1014.44
2018-08-04T12:01:30.235Z,1014.43
2018-08-04T12:02:30.219Z,1014.37
2018-08-04T12:03:30.216Z,1014.33
2018-08-04T12:04:30.173Z,1014.41
2018-08-04T12:05:30.160Z,1014.39